Time;durP1;ratioP1;P1;durP2;ratioP2;P2;SDS_P1;SDS_P2;PMS_P1;PMS_P2;Temp;Humidity;BMP_temperature;BMP_pressure;BME280_temperature;BME280_humidity;BME280_pressure;Samples;Min_cycle;Max_cycle;Signal;HPM_P1;HPM_P2
2023/07/08 00:00:48;;;;;;;6.47;4.70;;;24.40;67.90;;;;;;5053523;28;20028;-74
2023/07/08 00:03:15;;;;;;;7.40;4.80;;;24.40;67.90;;;;;;5053447;28;20025;-75
2023/07/08 00:05:41;;;;;;;9.65;5.25;;;24.40;67.70;;;;;;5053193;28;20021;-75
2023/07/08 00:08:14;;;;;;;6.90;5.25;;;24.40;67.60;;;;;;5053175;28;20382;-75
2023/07/08 00:10:40;;;;;;;6.93;4.95;;;24.30;67.50;;;;;;5052986;28;20495;-75
2023/07/08 00:13:06;;;;;;;7.75;4.57;;;24.30;67.50;;;;;;5053014;28;20028;-75
2023/07/08 00:15:33;;;;;;;9.02;5.07;;;24.30;67.50;;;;;;5053023;28;20132;-75
2023/07/08 00:17:59;;;;;;;7.55;4.72;;;24.30;67.70;;;;;;5052972;28;20363;-75
2023/07/08 00:20:36;;;;;;;7.22;5.13;;;24.30;67.90;;;;;;5053191;28;20036;-75
2023/07/08 00:23:02;;;;;;;9.07;5.38;;;24.30;68.00;;;;;;5053131;28;20017;-75
2023/07/08 00:25:29;;;;;;;7.25;5.03;;;24.30;67.80;;;;;;5053116;28;20436;-75
2023/07/08 00:27:55;;;;;;;14.07;5.53;;;24.30;67.80;;;;;;5052855;28;20021;-74
2023/07/08 00:30:25;;;;;;;7.53;5.80;;;24.30;67.60;;;;;;5053068;28;20113;-75
2023/07/08 00:32:54;;;;;;;6.35;5.30;;;24.30;67.60;;;;;;5053063;28;20017;-74
2023/07/08 00:35:37;;;;;;;8.35;5.22;;;24.20;67.50;;;;;;5053070;28;20043;-75
2023/07/08 00:38:29;;;;;;;7.50;5.20;;;24.20;67.90;;;;;;5053086;28;20057;-75
2023/07/08 00:40:58;;;;;;;10.90;5.65;;;24.20;68.00;;;;;;5052691;28;20029;-75
2023/07/08 00:43:35;;;;;;;6.68;5.15;;;24.10;67.90;;;;;;5052664;28;20025;-75
2023/07/08 00:46:27;;;;;;;8.57;5.38;;;24.00;67.70;;;;;;5052689;28;20040;-75
2023/07/08 00:48:59;;;;;;;8.00;5.13;;;23.90;67.60;;;;;;5034370;28;20112;-75
2023/07/08 00:51:25;;;;;;;11.38;5.60;;;23.90;68.40;;;;;;5052875;28;20051;-75
2023/07/08 00:53:51;;;;;;;10.75;6.03;;;23.90;68.70;;;;;;5034673;28;20074;-75
2023/07/08 00:56:24;;;;;;;6.78;4.90;;;23.80;68.80;;;;;;5052697;28;20041;-75
2023/07/08 00:59:02;;;;;;;12.75;5.60;;;23.80;68.70;;;;;;5050481;28;20108;-75
2023/07/08 01:01:31;;;;;;;8.45;5.35;;;23.70;68.90;;;;;;5049713;28;20021;-75
2023/07/08 01:04:20;;;;;;;8.60;4.95;;;23.70;68.90;;;;;;5050582;28;20029;-75
2023/07/08 01:06:52;;;;;;;13.20;5.55;;;23.70;68.90;;;;;;5052386;28;20055;-74
2023/07/08 01:09:18;;;;;;;7.40;5.57;;;23.60;68.90;;;;;;5052600;28;20053;-74
2023/07/08 01:11:45;;;;;;;8.05;5.70;;;23.60;69.10;;;;;;5052510;28;20021;-74
2023/07/08 01:14:16;;;;;;;9.95;5.28;;;23.60;69.30;;;;;;5051623;28;20501;-74
2023/07/08 01:16:42;;;;;;;7.25;5.30;;;23.60;69.30;;;;;;5034381;28;20053;-75
2023/07/08 01:19:15;;;;;;;9.38;5.20;;;23.60;69.00;;;;;;5052531;28;20060;-75
2023/07/08 01:21:59;;;;;;;7.32;5.32;;;23.50;69.20;;;;;;5051984;28;20048;-75
2023/07/08 01:24:26;;;;;;;7.57;5.55;;;23.50;69.70;;;;;;5052306;28;20123;-75
2023/07/08 01:26:51;;;;;;;8.60;5.30;;;23.50;69.00;;;;;;5052291;28;20025;-74
2023/07/08 01:29:17;;;;;;;6.85;4.90;;;23.50;69.60;;;;;;5051927;28;20028;-75
2023/07/08 01:31:48;;;;;;;7.55;5.00;;;23.40;69.00;;;;;;5052264;28;20025;-74
2023/07/08 01:34:16;;;;;;;6.25;5.45;;;23.40;69.00;;;;;;5052144;28;20029;-75
2023/07/08 01:36:47;;;;;;;7.15;5.07;;;23.40;69.30;;;;;;5051960;28;20076;-75
2023/07/08 01:39:17;;;;;;;8.45;4.97;;;23.40;69.40;;;;;;5052420;28;20105;-75
2023/07/08 01:41:44;;;;;;;9.07;5.32;;;23.40;69.60;;;;;;5052151;28;20050;-75
2023/07/08 01:44:28;;;;;;;6.75;6.03;;;23.40;69.60;;;;;;5052336;28;20025;-75
2023/07/08 01:47:04;;;;;;;9.15;5.18;;;23.30;69.50;;;;;;5052393;28;20029;-74
2023/07/08 01:49:32;;;;;;;7.00;5.35;;;23.30;69.40;;;;;;5052481;28;20035;-74
2023/07/08 01:51:58;;;;;;;6.40;5.18;;;23.30;69.90;;;;;;5052449;28;20044;-74
2023/07/08 01:54:24;;;;;;;9.88;5.70;;;23.20;70.00;;;;;;5052016;28;20067;-73
2023/07/08 01:56:57;;;;;;;7.10;5.45;;;23.20;70.30;;;;;;5052192;28;20094;-74
2023/07/08 01:59:23;;;;;;;7.72;4.65;;;23.20;70.40;;;;;;5052261;28;20029;-74
2023/07/08 02:01:54;;;;;;;7.28;5.57;;;23.20;70.20;;;;;;5052048;28;20029;-74
2023/07/08 02:04:20;;;;;;;7.72;5.47;;;23.20;70.20;;;;;;5055608;28;20063;-73
2023/07/08 02:06:55;;;;;;;7.03;5.28;;;23.20;70.10;;;;;;5055720;28;20359;-73
2023/07/08 02:09:21;;;;;;;7.28;5.35;;;23.10;69.80;;;;;;5055477;28;20049;-73
2023/07/08 02:11:47;;;;;;;7.05;5.10;;;23.10;69.60;;;;;;5055796;28;20024;-74
2023/07/08 02:14:13;;;;;;;7.38;5.00;;;23.10;69.40;;;;;;5055413;28;20352;-73
2023/07/08 02:16:38;;;;;;;8.77;4.80;;;23.10;69.10;;;;;;5034103;28;20060;-73
2023/07/08 02:19:04;;;;;;;8.65;4.85;;;23.10;69.30;;;;;;5035440;28;20033;-73
2023/07/08 02:21:30;;;;;;;6.07;4.80;;;23.10;69.60;;;;;;5035621;28;20032;-74
2023/07/08 02:23:57;;;;;;;7.85;5.32;;;23.00;69.90;;;;;;5035425;28;20017;-74
2023/07/08 02:26:23;;;;;;;5.32;4.53;;;23.00;70.00;;;;;;5035413;28;20033;-73
2023/07/08 02:28:49;;;;;;;7.68;5.20;;;23.00;70.00;;;;;;5035775;28;20029;-73
2023/07/08 02:31:15;;;;;;;9.82;5.30;;;23.00;70.10;;;;;;5035782;28;20060;-74
2023/07/08 02:33:41;;;;;;;10.18;5.40;;;23.00;70.20;;;;;;5035304;28;20025;-74
2023/07/08 02:36:07;;;;;;;7.90;5.07;;;23.00;70.40;;;;;;5034765;28;20077;-73
2023/07/08 02:38:33;;;;;;;10.40;5.53;;;22.90;70.40;;;;;;5034933;28;20104;-74
2023/07/08 02:41:00;;;;;;;7.78;5.25;;;22.90;70.60;;;;;;5034862;28;20503;-74
2023/07/08 02:43:26;;;;;;;5.72;4.70;;;22.90;70.60;;;;;;5034780;28;20538;-74
2023/07/08 02:45:52;;;;;;;10.60;5.30;;;22.90;70.20;;;;;;5034960;28;20064;-74
2023/07/08 02:48:19;;;;;;;8.85;5.50;;;22.80;70.00;;;;;;5035142;28;20022;-74
2023/07/08 02:50:45;;;;;;;9.05;5.60;;;22.80;70.30;;;;;;5034837;28;20523;-74
2023/07/08 02:53:11;;;;;;;10.07;5.30;;;22.70;70.60;;;;;;5035256;28;20025;-75
2023/07/08 02:55:39;;;;;;;10.82;5.00;;;22.70;71.00;;;;;;5034694;28;20030;-74
2023/07/08 02:58:04;;;;;;;7.90;5.15;;;22.70;71.30;;;;;;5034676;28;20053;-74
2023/07/08 03:00:30;;;;;;;6.68;4.75;;;22.70;71.50;;;;;;5034789;28;20057;-74
2023/07/08 03:02:56;;;;;;;9.23;5.22;;;22.70;71.60;;;;;;5033473;28;20049;-74
2023/07/08 03:05:21;;;;;;;8.60;4.97;;;22.70;71.60;;;;;;5034749;28;20033;-74
2023/07/08 03:07:47;;;;;;;7.20;5.10;;;22.60;71.60;;;;;;5034399;28;20416;-73
2023/07/08 03:10:13;;;;;;;76.15;7.55;;;22.60;71.50;;;;;;5034824;28;20112;-73
2023/07/08 03:12:38;;;;;;;7.47;4.90;;;22.60;71.70;;;;;;5034571;28;20032;-72
2023/07/08 03:15:05;;;;;;;7.93;5.45;;;22.60;71.70;;;;;;5032618;28;20036;-73
2023/07/08 03:17:31;;;;;;;7.30;4.55;;;22.50;71.90;;;;;;5034963;28;20491;-73
2023/07/08 03:19:57;;;;;;;8.05;5.20;;;22.50;72.00;;;;;;5034379;28;20021;-73
2023/07/08 03:22:23;;;;;;;8.40;5.05;;;22.50;72.00;;;;;;5033959;28;20041;-73
2023/07/08 03:24:48;;;;;;;10.10;5.07;;;22.40;72.20;;;;;;5034602;28;20049;-72
2023/07/08 03:27:15;;;;;;;7.88;5.47;;;22.40;72.50;;;;;;5034788;28;20099;-72
2023/07/08 03:29:41;;;;;;;10.60;5.03;;;22.30;72.70;;;;;;5033849;28;20040;-73
2023/07/08 03:32:12;;;;;;;7.97;4.57;;;22.30;72.70;;;;;;5033305;28;20025;-73
2023/07/08 03:34:38;;;;;;;7.35;5.07;;;22.30;72.70;;;;;;5033883;28;20033;-73
2023/07/08 03:37:05;;;;;;;7.32;5.50;;;22.20;72.70;;;;;;5033592;28;20036;-73
2023/07/08 03:39:33;;;;;;;9.05;5.18;;;22.20;72.90;;;;;;5033615;28;20388;-73
2023/07/08 03:41:59;;;;;;;7.10;4.88;;;22.20;73.30;;;;;;5033650;28;20025;-73
2023/07/08 03:44:25;;;;;;;6.57;4.82;;;22.20;73.60;;;;;;5032819;28;20022;-73
2023/07/08 03:46:51;;;;;;;6.53;4.63;;;22.10;73.50;;;;;;5033620;28;20036;-73
2023/07/08 03:49:23;;;;;;;6.47;5.03;;;22.10;73.30;;;;;;5033553;28;20483;-73
2023/07/08 03:51:50;;;;;;;;;;;22.10;73.10;;;;;;5033915;28;20057;-73
2023/07/08 03:54:17;;;;;;;5.45;4.68;;;22.10;73.20;;;;;;5033485;28;20396;-73
2023/07/08 03:56:43;;;;;;;5.18;4.53;;;22.10;73.60;;;;;;5033793;28;20052;-73
2023/07/08 03:59:09;;;;;;;7.47;5.30;;;22.10;73.20;;;;;;5033796;28;20030;-73
2023/07/08 04:01:35;;;;;;;8.85;4.85;;;22.00;72.80;;;;;;5032221;28;20033;-74
2023/07/08 04:04:01;;;;;;;6.78;4.85;;;22.00;73.10;;;;;;5033427;28;20521;-73
2023/07/08 04:06:31;;;;;;;7.65;4.90;;;22.00;73.10;;;;;;5033591;28;20040;-73
2023/07/08 04:08:57;;;;;;;9.38;4.97;;;22.00;74.20;;;;;;5033622;28;20017;-73
2023/07/08 04:11:24;;;;;;;5.60;4.45;;;21.90;73.70;;;;;;5032301;28;20037;-74
2023/07/08 04:13:50;;;;;;;10.50;5.20;;;21.90;73.90;;;;;;5033627;28;20462;-73
2023/07/08 04:16:23;;;;;;;10.75;4.93;;;21.90;73.80;;;;;;5031738;28;20049;-74
2023/07/08 04:18:50;;;;;;;7.88;4.78;;;21.90;73.80;;;;;;5033445;28;20079;-73
2023/07/08 04:21:17;;;;;;;6.72;4.70;;;21.90;73.90;;;;;;5033439;28;20057;-74
2023/07/08 04:23:44;;;;;;;7.28;4.65;;;21.90;74.00;;;;;;5032407;28;20022;-74
2023/07/08 04:26:10;;;;;;;7.55;5.32;;;21.90;74.20;;;;;;5032820;28;20021;-73
2023/07/08 04:28:36;;;;;;;9.43;4.80;;;21.90;74.30;;;;;;5033223;28;20434;-73
2023/07/08 04:31:01;;;;;;;7.65;5.07;;;22.00;74.50;;;;;;5031846;28;20030;-74
2023/07/08 04:33:27;;;;;;;7.90;4.68;;;22.00;74.50;;;;;;5033078;28;20014;-74
2023/07/08 04:35:54;;;;;;;7.50;4.80;;;22.00;74.50;;;;;;5032918;28;20105;-74
2023/07/08 04:38:24;;;;;;;10.68;4.82;;;22.00;74.20;;;;;;5033092;28;20095;-74
2023/07/08 04:40:51;;;;;;;11.13;5.28;;;22.00;74.00;;;;;;5033153;28;20482;-74
2023/07/08 04:43:18;;;;;;;8.52;4.95;;;22.00;73.70;;;;;;5033028;28;20032;-73
2023/07/08 04:45:50;;;;;;;8.07;5.00;;;22.10;73.90;;;;;;5032994;28;20029;-73
2023/07/08 04:48:18;;;;;;;9.30;5.00;;;22.10;74.20;;;;;;5033047;28;20101;-73
2023/07/08 04:50:50;;;;;;;12.38;5.18;;;22.10;74.30;;;;;;5033083;28;20052;-73
2023/07/08 04:53:16;;;;;;;11.38;5.38;;;22.10;74.30;;;;;;5032794;28;20087;-73
2023/07/08 04:55:49;;;;;;;9.65;5.30;;;22.10;73.80;;;;;;5032745;28;20033;-74
2023/07/08 04:58:15;;;;;;;11.07;5.18;;;22.10;73.80;;;;;;5032614;28;20075;-74
2023/07/08 05:00:40;;;;;;;9.40;4.95;;;22.10;74.20;;;;;;5032911;28;20029;-75
2023/07/08 05:03:06;;;;;;;8.88;5.47;;;22.10;74.60;;;;;;5032751;28;20056;-74
2023/07/08 05:05:32;;;;;;;7.82;5.43;;;22.10;74.60;;;;;;5032977;28;20025;-73
2023/07/08 05:07:58;;;;;;;13.13;5.07;;;22.10;74.80;;;;;;5032799;28;20025;-74
2023/07/08 05:10:23;;;;;;;6.60;5.00;;;22.10;75.10;;;;;;5032579;28;20029;-74
2023/07/08 05:12:49;;;;;;;13.52;5.32;;;22.10;75.50;;;;;;5032792;28;20117;-74
2023/07/08 05:15:16;;;;;;;9.55;5.72;;;22.10;75.50;;;;;;5032306;28;20069;-74
2023/07/08 05:17:42;;;;;;;12.82;6.35;;;22.20;75.60;;;;;;5032879;28;20045;-74
2023/07/08 05:20:11;;;;;;;9.95;5.05;;;22.20;75.70;;;;;;5032660;28;20025;-74
2023/07/08 05:22:37;;;;;;;8.07;5.00;;;22.20;75.80;;;;;;5032554;28;20067;-74
2023/07/08 05:25:03;;;;;;;7.95;5.03;;;22.30;75.50;;;;;;5032772;28;20025;-74
2023/07/08 05:27:29;;;;;;;8.55;5.63;;;22.30;75.30;;;;;;5032785;28;20028;-73
2023/07/08 05:29:54;;;;;;;8.45;4.88;;;22.30;75.20;;;;;;5032642;28;20029;-73
2023/07/08 05:32:20;;;;;;;13.98;6.60;;;22.30;75.00;;;;;;5032651;28;20459;-73
2023/07/08 05:34:46;;;;;;;22.45;5.57;;;22.30;75.00;;;;;;5032588;28;20029;-74
2023/07/08 05:37:14;;;;;;;19.27;6.32;;;22.40;75.00;;;;;;5032688;28;20486;-74
2023/07/08 05:39:40;;;;;;;51.90;8.02;;;22.40;74.90;;;;;;5036320;28;20483;-74
2023/07/08 05:42:06;;;;;;;58.40;10.13;;;22.40;74.70;;;;;;5035915;28;20164;-74
2023/07/08 05:44:32;;;;;;;56.67;9.85;;;22.50;73.80;;;;;;5035976;28;20030;-74
2023/07/08 05:46:57;;;;;;;28.58;6.90;;;22.50;73.40;;;;;;5036481;28;20037;-74
2023/07/08 05:49:23;;;;;;;7.35;4.93;;;22.50;73.40;;;;;;5036076;28;20088;-73
2023/07/08 05:51:49;;;;;;;9.93;5.32;;;22.60;72.90;;;;;;5036067;28;20021;-73
2023/07/08 05:54:15;;;;;;;11.25;4.97;;;22.60;72.30;;;;;;5035905;28;20042;-74
2023/07/08 05:56:41;;;;;;;6.85;4.78;;;22.60;72.10;;;;;;5035525;28;20033;-74
2023/07/08 05:59:07;;;;;;;11.55;4.65;;;22.70;72.00;;;;;;5036058;28;20553;-74
2023/07/08 06:01:33;;;;;;;8.10;4.82;;;22.70;72.10;;;;;;5036176;28;20030;-73
2023/07/08 06:03:59;;;;;;;6.82;5.28;;;22.70;72.30;;;;;;5035998;28;20068;-74
2023/07/08 06:06:28;;;;;;;6.47;4.57;;;22.70;72.30;;;;;;5036089;28;20021;-74
2023/07/08 06:08:54;;;;;;;9.68;5.40;;;22.70;72.50;;;;;;5035775;28;20032;-73
2023/07/08 06:11:21;;;;;;;6.78;5.03;;;22.80;72.60;;;;;;5035647;28;20104;-75
2023/07/08 06:13:47;;;;;;;10.82;4.80;;;22.90;72.90;;;;;;5035844;28;20025;-74
2023/07/08 06:16:13;;;;;;;10.02;4.93;;;22.90;73.20;;;;;;5034297;28;20450;-74
2023/07/08 06:18:39;;;;;;;8.68;5.22;;;22.90;73.10;;;;;;5035811;28;20101;-74
2023/07/08 06:21:06;;;;;;;7.30;4.80;;;22.90;73.00;;;;;;5035584;28;20025;-74
2023/07/08 06:23:32;;;;;;;8.32;5.00;;;23.00;73.30;;;;;;5035445;28;20118;-74
2023/07/08 06:25:58;;;;;;;8.40;5.22;;;23.00;73.30;;;;;;5035721;28;20057;-73
2023/07/08 06:28:23;;;;;;;8.75;5.22;;;23.10;73.10;;;;;;5035316;28;20025;-74
2023/07/08 06:30:49;;;;;;;7.07;5.00;;;23.10;72.90;;;;;;5035485;28;20030;-74
2023/07/08 06:33:15;;;;;;;9.52;4.43;;;23.20;73.00;;;;;;5035323;28;20032;-74
2023/07/08 06:35:42;;;;;;;12.10;4.90;;;23.20;72.60;;;;;;5035285;28;20033;-74
2023/07/08 06:38:08;;;;;;;12.60;5.20;;;23.20;71.70;;;;;;5034874;28;20414;-75
2023/07/08 06:40:35;;;;;;;6.60;4.80;;;23.30;71.90;;;;;;5035335;28;20032;-75
2023/07/08 06:43:02;;;;;;;10.20;5.53;;;23.30;72.20;;;;;;5035240;28;20032;-74
2023/07/08 06:45:28;;;;;;;14.77;5.25;;;23.40;72.50;;;;;;5035154;28;20071;-74
2023/07/08 06:47:53;;;;;;;11.75;5.38;;;23.50;72.50;;;;;;5035196;28;20030;-75
2023/07/08 06:50:19;;;;;;;15.13;5.63;;;23.50;72.60;;;;;;5034979;28;20021;-74
2023/07/08 06:52:45;;;;;;;8.32;5.20;;;23.60;72.50;;;;;;5034893;28;20021;-74
2023/07/08 06:55:11;;;;;;;8.63;5.22;;;23.60;72.20;;;;;;5035020;28;20042;-74
2023/07/08 06:57:40;;;;;;;6.07;4.38;;;23.60;71.80;;;;;;5034952;28;20017;-74
2023/07/08 07:00:08;;;;;;;10.50;5.10;;;23.70;71.60;;;;;;5034710;28;20076;-74
2023/07/08 07:02:34;;;;;;;8.90;4.90;;;23.80;71.60;;;;;;5034835;28;20024;-74
2023/07/08 07:05:00;;;;;;;9.00;5.25;;;23.80;71.50;;;;;;5034785;28;20044;-74
2023/07/08 07:07:26;;;;;;;8.93;5.00;;;23.90;71.40;;;;;;5034436;28;20028;-74
2023/07/08 07:09:53;;;;;;;6.90;4.70;;;24.00;71.20;;;;;;5034731;28;20030;-74
2023/07/08 07:12:19;;;;;;;6.43;5.20;;;24.00;71.20;;;;;;5034585;28;20018;-75
2023/07/08 07:14:45;;;;;;;6.97;4.93;;;24.10;71.50;;;;;;5034461;28;20037;-75
2023/07/08 07:17:10;;;;;;;8.38;5.25;;;24.10;71.40;;;;;;5034507;28;20045;-74
2023/07/08 07:19:36;;;;;;;9.02;6.07;;;24.20;70.90;;;;;;5034406;28;20028;-74
2023/07/08 07:22:02;;;;;;;9.18;6.65;;;24.30;71.70;;;;;;5034400;28;20468;-74
2023/07/08 07:24:28;;;;;;;16.17;6.95;;;24.30;70.90;;;;;;5034268;28;20112;-74
2023/07/08 07:26:54;;;;;;;10.63;6.78;;;24.40;70.70;;;;;;5034387;28;20514;-74
2023/07/08 07:29:23;;;;;;;10.38;6.00;;;24.50;70.70;;;;;;5034367;28;20026;-74
2023/07/08 07:31:49;;;;;;;7.13;4.95;;;24.50;70.50;;;;;;5033091;28;20522;-75
2023/07/08 07:34:15;;;;;;;7.82;5.00;;;24.60;70.70;;;;;;5033889;28;20021;-74
2023/07/08 07:36:41;;;;;;;10.23;5.07;;;24.70;70.10;;;;;;5034258;28;20472;-73
2023/07/08 07:39:06;;;;;;;5.78;4.35;;;24.70;69.70;;;;;;5034348;28;20390;-74
2023/07/08 07:41:32;;;;;;;9.73;4.38;;;24.70;69.20;;;;;;5034083;28;20026;-74
2023/07/08 07:43:58;;;;;;;7.28;4.35;;;24.80;67.50;;;;;;5033734;28;20033;-74
2023/07/08 07:46:23;;;;;;;5.93;4.35;;;24.90;66.80;;;;;;5034187;28;20026;-74
2023/07/08 07:48:49;;;;;;;4.97;4.18;;;24.90;66.40;;;;;;5033700;28;20076;-74
2023/07/08 07:51:15;;;;;;;4.80;4.00;;;24.90;66.30;;;;;;5032592;28;20026;-74
2023/07/08 07:53:41;;;;;;;6.10;3.95;;;25.00;65.90;;;;;;5033934;28;20029;-74
2023/07/08 07:56:07;;;;;;;5.63;4.30;;;25.10;65.10;;;;;;5033821;28;20555;-74
2023/07/08 07:58:33;;;;;;;5.60;3.80;;;25.10;64.30;;;;;;5033870;28;20108;-74
2023/07/08 08:00:59;;;;;;;6.72;4.05;;;25.20;63.40;;;;;;5033203;28;20063;-74
2023/07/08 08:03:25;;;;;;;6.70;4.20;;;25.20;62.20;;;;;;5033642;28;20440;-74
2023/07/08 08:05:51;;;;;;;6.05;3.97;;;25.30;61.70;;;;;;5033529;28;20025;-74
2023/07/08 08:08:17;;;;;;;6.38;4.30;;;25.30;60.80;;;;;;5033576;28;20028;-74
2023/07/08 08:10:43;;;;;;;6.25;3.83;;;25.40;60.50;;;;;;5033513;28;20072;-75
2023/07/08 08:13:09;;;;;;;4.85;3.78;;;25.40;60.10;;;;;;5033468;28;20083;-74
2023/07/08 08:15:35;;;;;;;7.05;4.13;;;25.50;58.80;;;;;;5033316;28;20041;-74
2023/07/08 08:18:01;;;;;;;10.35;4.07;;;25.50;58.40;;;;;;5033300;28;20030;-74
2023/07/08 08:20:28;;;;;;;8.57;3.83;;;25.60;58.20;;;;;;5033322;28;20029;-74
2023/07/08 08:22:54;;;;;;;6.13;4.10;;;25.60;57.90;;;;;;5033530;28;20484;-74
2023/07/08 08:25:21;;;;;;;5.85;3.75;;;25.70;57.70;;;;;;5033496;28;20025;-74
2023/07/08 08:27:47;;;;;;;6.85;4.35;;;25.70;57.70;;;;;;5033507;28;20079;-74
2023/07/08 08:30:13;;;;;;;6.63;4.20;;;25.70;57.60;;;;;;5033277;28;20017;-74
2023/07/08 08:32:39;;;;;;;5.25;3.78;;;25.80;57.80;;;;;;5033284;28;20029;-74
2023/07/08 08:35:05;;;;;;;6.38;4.10;;;25.90;57.90;;;;;;5033300;28;20061;-74
2023/07/08 08:37:31;;;;;;;5.55;4.05;;;25.90;57.30;;;;;;5033136;28;20067;-74
2023/07/08 08:39:56;;;;;;;7.28;3.92;;;26.00;57.30;;;;;;5033121;28;20096;-74
2023/07/08 08:42:42;;;;;;;5.20;3.88;;;26.00;57.30;;;;;;5032992;28;20147;-74
2023/07/08 08:45:13;;;;;;;6.65;3.85;;;26.10;56.90;;;;;;5032802;28;20525;-74
2023/07/08 08:47:51;;;;;;;5.55;4.45;;;26.10;57.10;;;;;;5033064;28;20017;-74
2023/07/08 08:50:20;;;;;;;7.82;4.40;;;26.20;57.90;;;;;;5033046;28;20029;-74
2023/07/08 08:52:46;;;;;;;6.13;4.30;;;26.30;57.40;;;;;;5033115;28;20116;-74
2023/07/08 08:55:13;;;;;;;5.53;4.40;;;26.30;57.00;;;;;;5032825;28;20065;-74
2023/07/08 08:57:44;;;;;;;6.78;4.70;;;26.40;57.50;;;;;;5032754;28;20480;-74
2023/07/08 09:00:16;;;;;;;9.20;4.63;;;26.50;57.70;;;;;;5032654;28;20507;-74
2023/07/08 09:02:57;;;;;;;8.50;4.97;;;26.60;57.50;;;;;;5032987;28;20028;-74
2023/07/08 09:05:23;;;;;;;6.10;4.35;;;;;;;;;;5032771;28;20037;-74
2023/07/08 09:08:25;;;;;;;8.25;4.57;;;26.70;57.70;;;;;;5032715;28;20021;-74
2023/07/08 09:11:01;;;;;;;6.90;4.93;;;26.70;57.50;;;;;;5032441;28;20036;-74
2023/07/08 09:13:31;;;;;;;8.10;4.90;;;26.80;57.50;;;;;;5034688;28;20048;-74
2023/07/08 09:16:16;;;;;;;5.80;4.25;;;26.90;57.10;;;;;;5053822;22;20045;-74
2023/07/08 09:19:34;;;;;;;7.30;4.18;;;26.90;56.40;;;;;;5076800;28;20028;-74
2023/07/08 09:22:17;;;;;;;6.88;4.43;;;27.00;56.80;;;;;;5031858;28;20128;-73
2023/07/08 09:24:49;;;;;;;6.55;4.63;;;27.00;56.40;;;;;;5058597;28;20050;-73
2023/07/08 09:27:15;;;;;;;7.30;4.10;;;27.10;56.20;;;;;;5076489;28;20024;-73
2023/07/08 09:29:41;;;;;;;10.90;4.53;;;27.10;55.70;;;;;;5076612;28;20097;-74
2023/07/08 09:32:18;;;;;;;9.00;4.32;;;27.20;55.20;;;;;;5076308;28;20032;-74
2023/07/08 09:34:53;;;;;;;10.02;5.30;;;27.20;54.70;;;;;;5076169;28;20093;-74
2023/07/08 09:37:30;;;;;;;4.93;4.20;;;27.30;54.50;;;;;;5058317;28;20124;-74
2023/07/08 09:39:58;;;;;;;5.38;4.22;;;27.40;54.10;;;;;;5076469;28;20416;-74
2023/07/08 09:42:29;;;;;;;5.30;4.20;;;27.40;55.10;;;;;;5075960;28;20025;-74
2023/07/08 09:45:09;;;;;;;7.70;4.45;;;27.50;54.90;;;;;;5076118;28;20056;-74
2023/07/08 09:47:39;;;;;;;8.98;4.28;;;27.60;54.70;;;;;;5058358;28;20062;-74
2023/07/08 09:50:18;;;;;;;7.60;4.28;;;27.60;54.70;;;;;;5075991;28;20024;-74
2023/07/08 09:52:45;;;;;;;7.68;4.20;;;27.60;53.70;;;;;;5076070;28;20086;-74
2023/07/08 09:55:11;;;;;;;8.40;4.95;;;27.70;53.70;;;;;;5075886;28;20020;-76
2023/07/08 09:57:38;;;;;;;6.25;4.40;;;27.70;53.50;;;;;;5075862;28;20032;-73
2023/07/08 10:00:11;;;;;;;5.47;4.53;;;27.80;53.50;;;;;;5075906;28;20063;-74
2023/07/08 10:02:53;;;;;;;4.95;4.03;;;27.80;54.00;;;;;;5075998;28;20351;-74
2023/07/08 10:05:22;;;;;;;7.68;4.00;;;27.90;54.30;;;;;;5075963;28;20032;-74
2023/07/08 10:07:51;;;;;;;7.68;4.30;;;27.90;53.60;;;;;;5075675;28;20024;-73
2023/07/08 10:10:22;;;;;;;5.40;4.10;;;28.00;53.50;;;;;;5075725;28;20056;-74
2023/07/08 10:13:01;;;;;;;8.60;4.75;;;28.00;53.60;;;;;;5075842;28;20496;-74
2023/07/08 10:15:44;;;;;;;5.65;4.70;;;28.10;53.90;;;;;;5075580;28;20462;-74
2023/07/08 10:18:30;;;;;;;7.90;4.20;;;28.10;54.80;;;;;;5075535;28;20032;-74
2023/07/08 10:20:56;;;;;;;8.55;4.55;;;28.20;54.90;;;;;;5075228;28;20043;-74
2023/07/08 10:24:15;;;;;;;8.13;4.88;;;28.20;53.80;;;;;;5074956;28;20459;-74
2023/07/08 10:26:41;;;;;;;9.68;4.85;;;28.30;53.20;;;;;;5003605;28;20511;-74
2023/07/08 10:29:32;;;;;;;6.47;4.38;;;28.40;53.20;;;;;;5075447;28;20032;-74
2023/07/08 10:32:35;;;;;;;6.95;4.35;;;28.50;52.90;;;;;;5075491;28;20037;-74
2023/07/08 10:35:01;;;;;;;6.53;4.63;;;28.50;52.30;;;;;;5075310;28;20043;-74
2023/07/08 10:38:01;;;;;;;7.75;5.43;;;28.60;52.50;;;;;;5057397;28;20020;-74
2023/07/08 10:40:34;;;;;;;6.13;4.35;;;28.60;51.70;;;;;;5075294;28;20021;-74
2023/07/08 10:43:20;;;;;;;8.38;4.43;;;28.70;52.40;;;;;;5075101;28;20021;-75
2023/07/08 10:45:49;;;;;;;6.07;4.38;;;28.70;52.80;;;;;;5075156;28;20066;-74
2023/07/08 10:48:36;;;;;;;5.05;4.43;;;28.80;52.80;;;;;;5074939;28;20044;-74
2023/07/08 10:51:32;;;;;;;11.48;4.80;;;28.80;53.10;;;;;;5056879;28;20032;-74
2023/07/08 10:54:42;;;;;;;6.47;4.70;;;28.90;52.10;;;;;;5057016;28;20033;-74
2023/07/08 10:57:19;;;;;;;9.02;4.70;;;28.90;52.90;;;;;;5074815;28;20037;-74
2023/07/08 10:59:49;;;;;;;8.52;4.63;;;29.00;52.10;;;;;;5056634;28;20032;-75
2023/07/08 11:02:25;;;;;;;4.75;4.20;;;29.00;51.60;;;;;;5056509;28;20107;-74
2023/07/08 11:05:13;;;;;;;5.88;4.25;;;29.10;51.10;;;;;;5074648;28;20123;-74
2023/07/08 11:07:58;;;;;;;7.05;4.38;;;29.10;50.90;;;;;;5074680;28;20016;-74
2023/07/08 11:10:32;;;;;;;5.88;4.68;;;29.10;51.20;;;;;;5074662;28;20392;-74
2023/07/08 11:13:14;;;;;;;9.98;4.95;;;29.10;52.00;;;;;;5074560;28;20020;-74
2023/07/08 11:15:46;;;;;;;5.40;4.72;;;29.10;51.90;;;;;;5074413;28;20091;-74
2023/07/08 11:18:17;;;;;;;6.47;4.63;;;29.20;51.80;;;;;;5056603;28;20024;-74
2023/07/08 11:21:27;;;;;;;7.65;4.82;;;29.20;51.50;;;;;;5074445;28;20083;-75
2023/07/08 11:24:29;;;;;;;6.68;4.32;;;29.30;50.20;;;;;;4992711;28;20057;-74
2023/07/08 11:27:07;;;;;;;5.57;4.38;;;29.30;51.20;;;;;;5056352;28;20025;-74
2023/07/08 11:29:41;;;;;;;6.35;4.55;;;29.30;51.00;;;;;;5074316;28;20029;-74
2023/07/08 11:32:14;;;;;;;7.15;4.50;;;29.30;50.10;;;;;;5074254;28;20074;-74
2023/07/08 11:34:42;;;;;;;8.15;4.60;;;29.30;50.40;;;;;;5055602;28;20374;-74
2023/07/08 11:37:09;;;;;;;6.18;4.32;;;29.30;51.10;;;;;;5073652;28;20497;-74
2023/07/08 11:39:46;;;;;;;7.25;4.25;;;29.40;51.30;;;;;;5073977;28;20040;-74
2023/07/08 11:42:43;;;;;;;7.72;4.88;;;29.40;51.40;;;;;;5073847;28;20085;-74
2023/07/08 11:45:15;;;;;;;5.00;4.50;;;29.50;52.20;;;;;;5073597;28;20025;-74
2023/07/08 11:47:46;;;;;;;6.78;4.70;;;29.50;51.60;;;;;;5073877;28;20024;-74
2023/07/08 11:50:35;;;;;;;11.75;5.05;;;29.50;51.90;;;;;;5073881;28;20021;-75
2023/07/08 11:53:09;;;;;;;7.78;4.50;;;29.50;51.30;;;;;;5073720;28;20474;-74
2023/07/08 11:55:38;;;;;;;7.93;4.90;;;29.50;50.90;;;;;;5073749;28;20040;-74
2023/07/08 11:58:19;;;;;;;7.72;4.50;;;29.60;50.80;;;;;;5073620;28;20082;-74
2023/07/08 12:01:12;;;;;;;6.68;4.43;;;29.60;50.80;;;;;;5073672;28;20101;-74
2023/07/08 12:03:47;;;;;;;7.05;4.85;;;29.60;51.20;;;;;;5059466;28;20513;-74
2023/07/08 12:06:28;;;;;;;8.30;4.38;;;29.70;51.00;;;;;;5073197;28;20021;-74
2023/07/08 12:08:55;;;;;;;6.50;4.47;;;29.70;51.40;;;;;;5073454;28;20466;-74
2023/07/08 12:11:32;;;;;;;7.70;4.50;;;29.70;51.90;;;;;;5073220;28;20270;-74
2023/07/08 12:14:03;;;;;;;6.50;4.18;;;29.80;52.20;;;;;;5073426;28;20100;-74
2023/07/08 12:16:31;;;;;;;7.18;4.63;;;29.80;52.00;;;;;;5073049;28;20077;-74
2023/07/08 12:19:04;;;;;;;7.07;4.47;;;29.80;51.50;;;;;;5073258;28;20031;-74
2023/07/08 12:21:34;;;;;;;7.40;4.88;;;29.80;51.90;;;;;;5073177;28;20036;-74
2023/07/08 12:24:05;;;;;;;7.50;4.45;;;29.80;51.10;;;;;;5073238;28;20029;-74
2023/07/08 12:26:32;;;;;;;6.82;4.65;;;29.80;50.60;;;;;;5073251;28;20036;-74
2023/07/08 12:28:58;;;;;;;6.03;4.50;;;29.80;51.40;;;;;;5073340;28;20524;-75
2023/07/08 12:31:24;;;;;;;10.88;4.57;;;29.80;51.30;;;;;;5073468;28;20024;-74
2023/07/08 12:33:51;;;;;;;8.60;4.72;;;29.90;52.00;;;;;;5073356;28;20028;-75
2023/07/08 12:36:25;;;;;;;6.90;4.15;;;29.90;51.70;;;;;;5073143;28;20036;-75
2023/07/08 12:38:52;;;;;;;5.50;4.75;;;29.90;51.80;;;;;;5072954;28;20066;-73
2023/07/08 12:41:26;;;;;;;6.60;4.60;;;29.90;52.20;;;;;;5073129;28;20115;-74
2023/07/08 12:43:52;;;;;;;6.13;4.30;;;30.00;52.10;;;;;;5073263;28;20473;-73
2023/07/08 12:46:20;;;;;;;6.68;5.18;;;30.00;51.50;;;;;;5072639;28;20032;-74
2023/07/08 12:48:46;;;;;;;6.85;4.78;;;30.00;51.10;;;;;;5073136;28;20024;-75
2023/07/08 12:51:24;;;;;;;6.82;4.38;;;30.00;51.20;;;;;;5072875;28;20028;-74
2023/07/08 12:53:52;;;;;;;6.57;4.72;;;30.00;51.20;;;;;;5072757;28;20046;-74
2023/07/08 12:56:19;;;;;;;10.60;4.75;;;30.00;51.40;;;;;;5072751;28;20032;-74
2023/07/08 12:58:49;;;;;;;6.95;4.53;;;30.10;51.20;;;;;;5072646;28;20020;-74
2023/07/08 13:01:21;;;;;;;6.65;4.57;;;30.00;51.70;;;;;;5072758;28;20512;-74